Time;durP1;ratioP1;P1;durP2;ratioP2;P2;SDS_P1;SDS_P2;PMS_P1;PMS_P2;Temp;Humidity;BMP_temperature;BMP_pressure;BME280_temperature;BME280_humidity;BME280_pressure;Samples;Min_cycle;Max_cycle;Signal;HPM_P1;HPM_P2
2022/08/13 00:01:17;;;;;;;8.70;6.20;;;;;;;22.24;42.77;101530.94;5048669;28;20033;-58
2022/08/13 00:03:44;;;;;;;7.25;6.00;;;;;;;22.20;44.03;101537.19;5049444;28;20040;-58
2022/08/13 00:06:10;;;;;;;7.47;6.30;;;;;;;22.12;44.22;101534.66;5049049;28;20507;-58
2022/08/13 00:08:37;;;;;;;7.55;6.05;;;;;;;22.12;43.81;101542.63;5048685;28;20040;-58
2022/08/13 00:11:05;;;;;;;6.43;5.47;;;;;;;22.04;45.52;101537.41;5047894;28;20028;-57
2022/08/13 00:13:31;;;;;;;8.75;6.35;;;;;;;22.02;44.86;101538.31;5041364;28;20024;-58
2022/08/13 00:15:59;;;;;;;7.03;5.68;;;;;;;21.98;45.76;101532.16;5039723;28;20021;-58
2022/08/13 00:18:25;;;;;;;8.48;6.07;;;;;;;21.95;45.28;101539.31;5045510;28;20025;-58
2022/08/13 00:20:53;;;;;;;6.70;5.28;;;;;;;21.91;45.59;101538.44;5048806;28;20040;-58
2022/08/13 00:23:21;;;;;;;10.75;6.40;;;;;;;21.91;46.07;101537.59;5041189;28;20041;-59
2022/08/13 00:25:50;;;;;;;7.30;5.50;;;;;;;21.85;46.35;101543.84;5043749;28;20487;-58
2022/08/13 00:28:19;;;;;;;9.70;5.43;;;;;;;21.82;45.73;101536.78;5042501;28;20025;-58
2022/08/13 00:30:46;;;;;;;6.80;5.60;;;;;;;21.77;45.92;101543.03;5043015;28;20056;-58
2022/08/13 00:33:19;;;;;;;8.80;5.93;;;;;;;21.69;46.70;101545.78;5042884;28;20029;-58
2022/08/13 00:35:47;;;;;;;7.53;5.57;;;;;;;21.68;46.37;101544.03;5044138;28;20036;-58
2022/08/13 00:38:29;;;;;;;8.40;6.43;;;;;;;21.67;45.73;101537.00;5046986;28;20033;-58
2022/08/13 00:40:58;;;;;;;9.32;6.18;;;;;;;21.58;46.26;101543.28;5043908;28;20065;-58
2022/08/13 00:43:24;;;;;;;;;;;;;;;21.69;44.85;101541.34;5044265;28;20037;-58
2022/08/13 00:45:50;;;;;;;9.27;6.22;;;;;;;21.54;46.26;101538.91;5046636;28;19923;-58
2022/08/13 00:51:01;;;;;;;9.68;6.35;;;;;;;21.45;46.44;101546.91;5045685;28;20138;-58
2022/08/13 00:53:29;;;;;;;8.48;6.18;;;;;;;21.39;46.16;101542.53;5048632;28;20037;-58
2022/08/13 00:55:58;;;;;;;8.32;6.05;;;;;;;21.36;46.32;101543.47;5050537;28;20025;-58
2022/08/13 00:58:27;;;;;;;7.32;6.25;;;;;;;21.32;46.44;101547.03;5031076;28;20033;-58
2022/08/13 01:00:57;;;;;;;9.00;6.45;;;;;;;21.29;46.52;101549.72;5051129;28;20101;-58
2022/08/13 01:03:25;;;;;;;8.00;6.25;;;;;;;21.22;46.89;101549.78;5048252;28;20158;-58
2022/08/13 01:05:52;;;;;;;9.00;6.90;;;;;;;21.17;47.05;101547.19;5038645;28;20020;-58
2022/08/13 01:08:18;;;;;;;8.23;6.68;;;;;;;21.11;46.90;101549.88;5043017;28;20641;-58
2022/08/13 01:10:47;;;;;;;7.03;6.25;;;;;;;21.07;47.17;101540.19;5041079;28;20594;-58
2022/08/13 01:13:13;;;;;;;7.68;6.30;;;;;;;21.04;47.39;101545.53;5048721;28;20407;-58
2022/08/13 01:15:41;;;;;;;7.25;6.25;;;;;;;21.02;47.15;101542.91;5049988;28;20033;-58
2022/08/13 01:18:08;;;;;;;9.65;6.47;;;;;;;20.96;47.47;101543.81;5047932;28;20041;-58
2022/08/13 01:20:42;;;;;;;9.00;7.07;;;;;;;20.92;47.56;101542.09;5034656;28;20035;-58
2022/08/13 01:23:09;;;;;;;8.50;7.07;;;;;;;20.89;47.21;101542.13;5043744;28;20033;-58
2022/08/13 01:25:34;;;;;;;9.00;7.40;;;;;;;20.86;47.11;101541.28;5047248;28;20446;-58
2022/08/13 01:27:59;;;;;;;8.95;7.38;;;;;;;20.81;47.24;101541.28;5046389;28;20015;-58
2022/08/13 01:30:25;;;;;;;8.70;7.50;;;;;;;20.78;47.82;101544.88;5049896;28;20515;-58
2022/08/13 01:32:50;;;;;;;9.82;8.18;;;;;;;20.72;47.38;101547.53;5044606;28;20523;-58
2022/08/13 01:35:17;;;;;;;9.43;8.10;;;;;;;20.64;47.87;101550.22;5037737;28;20082;-58
2022/08/13 01:37:45;;;;;;;9.63;8.10;;;;;;;20.57;48.23;101551.16;5045079;28;20090;-57
2022/08/13 01:40:11;;;;;;;10.50;8.30;;;;;;;20.57;47.60;101548.50;5049035;28;20497;-58
2022/08/13 01:42:42;;;;;;;10.55;8.20;;;;;;;20.53;47.96;101551.19;5047008;28;20027;-58
2022/08/13 01:45:11;;;;;;;11.90;8.30;;;;;;;20.46;48.22;101545.03;5049255;28;20024;-58
2022/08/13 01:50:30;;;;;;;12.20;8.38;;;;;;;20.38;48.85;101539.81;5047176;28;20061;-57
2022/08/13 01:53:11;;;;;;;9.68;7.97;;;;;;;20.33;48.48;101537.19;5045985;28;20029;-57
2022/08/13 01:55:43;;;;;;;10.15;8.05;;;;;;;20.29;48.92;101542.47;5044890;28;20528;-57
2022/08/13 01:58:11;;;;;;;11.25;7.95;;;;;;;20.24;48.96;101541.66;5042468;28;20029;-57
2022/08/13 02:00:38;;;;;;;12.23;8.68;;;;;;;20.20;49.19;101540.75;5049499;28;20491;-57
2022/08/13 02:03:09;;;;;;;8.55;7.68;;;;;;;20.20;49.14;101539.91;5047782;28;20550;-57
2022/08/13 02:05:36;;;;;;;11.13;8.35;;;;;;;20.18;49.32;101542.56;5041575;28;20051;-57
2022/08/13 02:08:02;;;;;;;9.38;8.38;;;;;;;20.14;49.43;101544.31;5046626;28;20039;-57
2022/08/13 02:10:28;;;;;;;11.13;8.65;;;;;;;20.10;49.78;101542.59;5048480;28;20036;-57
2022/08/13 02:12:53;;;;;;;9.82;8.88;;;;;;;20.07;49.63;101536.44;5046963;28;20057;-57
2022/08/13 02:15:19;;;;;;;13.25;8.80;;;;;;;20.06;50.07;101537.31;5046589;28;20116;-57
2022/08/13 02:17:45;;;;;;;12.07;8.52;;;;;;;20.01;50.07;101532.03;5045667;28;20033;-57
2022/08/13 02:20:20;;;;;;;9.38;8.32;;;;;;;19.98;49.78;101537.34;5041205;28;20067;-57
2022/08/13 02:22:46;;;;;;;11.93;8.55;;;;;;;19.96;49.79;101539.13;5044975;28;20037;-57
2022/08/13 02:25:15;;;;;;;9.77;8.77;;;;;;;19.89;50.37;101543.56;5047990;28;20090;-58
2022/08/13 02:27:41;;;;;;;9.98;8.50;;;;;;;19.86;50.53;101545.34;5043680;28;20021;-58
2022/08/13 02:30:09;;;;;;;10.25;9.15;;;;;;;19.79;50.61;101544.47;5046717;28;20024;-58
2022/08/13 02:32:36;;;;;;;10.40;8.60;;;;;;;19.72;51.26;101542.72;5045302;28;20064;-57
2022/08/13 02:35:04;;;;;;;11.63;8.25;;;;;;;19.70;50.85;101540.06;5046876;28;20016;-57
2022/08/13 02:37:32;;;;;;;11.80;8.10;;;;;;;19.68;50.42;101539.19;5042927;28;20499;-58
2022/08/13 02:39:59;;;;;;;10.35;8.27;;;;;;;19.64;50.25;101543.63;5037992;28;20043;-58
2022/08/13 02:42:31;;;;;;;11.50;9.13;;;;;;;19.57;51.09;101544.50;5044835;28;20392;-58
2022/08/13 02:44:57;;;;;;;10.38;8.45;;;;;;;19.57;50.45;101544.50;5048596;28;20486;-58
2022/08/13 02:47:23;;;;;;;9.77;8.77;;;;;;;19.49;51.04;101534.84;5043815;28;20025;-58
2022/08/13 02:49:51;;;;;;;11.20;8.55;;;;;;;19.48;51.37;101538.38;5047970;28;20392;-58
2022/08/13 02:52:18;;;;;;;9.82;8.82;;;;;;;19.46;51.41;101543.66;5041715;28;20032;-58
2022/08/13 02:54:46;;;;;;;10.95;8.90;;;;;;;19.36;52.06;101541.91;5048400;28;20044;-57
2022/08/13 02:57:11;;;;;;;9.52;8.52;;;;;;;19.38;51.61;101540.13;5045584;28;20087;-58
2022/08/13 02:59:38;;;;;;;10.52;9.10;;;;;;;19.32;51.67;101541.06;5025199;28;20030;-58
2022/08/13 03:02:05;;;;;;;12.23;9.10;;;;;;;19.32;51.67;101540.16;5037579;28;20032;-58
2022/08/13 03:04:31;;;;;;;9.68;8.65;;;;;;;19.27;51.46;101541.03;5039432;28;20500;-57
2022/08/13 03:06:57;;;;;;;11.05;8.73;;;;;;;19.21;52.07;101543.69;5044958;28;20032;-57
2022/08/13 03:09:23;;;;;;;10.75;8.90;;;;;;;19.20;52.11;101539.28;5042692;28;20033;-57
2022/08/13 03:11:50;;;;;;;9.95;8.95;;;;;;;19.15;52.26;101534.88;5045858;28;20130;-57
2022/08/13 03:14:16;;;;;;;11.48;9.07;;;;;;;19.13;52.28;101537.53;5048300;28;20028;-57
2022/08/13 03:16:41;;;;;;;9.45;8.45;;;;;;;19.11;51.72;101536.66;5046011;28;20025;-57
2022/08/13 03:19:07;;;;;;;10.15;8.88;;;;;;;19.10;52.03;101543.72;5039725;28;20054;-57
2022/08/13 03:21:36;;;;;;;10.82;9.20;;;;;;;19.06;52.23;101541.06;5043740;28;20037;-56
2022/08/13 03:24:03;;;;;;;10.68;9.15;;;;;;;19.03;52.68;101546.34;5048281;28;20412;-57
2022/08/13 03:26:30;;;;;;;10.32;8.82;;;;;;;19.00;52.38;101541.06;5036706;28;20556;-58
2022/08/13 03:28:55;;;;;;;10.32;8.90;;;;;;;18.93;52.38;101538.44;5035373;28;20024;-57
2022/08/13 03:31:21;;;;;;;9.77;8.80;;;;;;;18.92;52.52;101543.72;5045136;28;20412;-57
2022/08/13 03:33:47;;;;;;;11.63;8.60;;;;;;;18.89;52.33;101539.31;5042145;28;20587;-57
2022/08/13 03:36:13;;;;;;;13.35;8.90;;;;;;;18.86;52.60;101544.59;5044282;28;20036;-57
2022/08/13 03:38:39;;;;;;;10.88;8.40;;;;;;;18.84;52.34;101541.03;5041981;28;20347;-57
2022/08/13 03:41:11;;;;;;;10.10;8.35;;;;;;;18.82;52.14;101550.72;5040148;28;20470;-58
2022/08/13 03:43:40;;;;;;;12.93;9.13;;;;;;;18.80;51.97;101543.66;5041480;28;20033;-58
2022/08/13 03:46:08;;;;;;;9.90;8.65;;;;;;;18.75;52.98;101536.59;5036870;28;20032;-58
2022/08/13 03:48:34;;;;;;;10.68;8.73;;;;;;;18.73;52.33;101548.94;5038327;28;20025;-58
2022/08/13 03:51:00;;;;;;;9.93;8.93;;;;;;;18.70;53.22;101540.16;5044406;28;20548;-58
2022/08/13 03:53:26;;;;;;;10.77;9.10;;;;;;;18.68;53.00;101542.75;5047153;28;20029;-58
2022/08/13 03:55:51;;;;;;;12.38;9.13;;;;;;;18.65;53.13;101541.91;5042165;28;20090;-58
2022/08/13 03:58:17;;;;;;;10.50;9.35;;;;;;;18.60;53.61;101536.63;5045855;28;20018;-58
2022/08/13 04:00:49;;;;;;;14.27;9.73;;;;;;;18.56;53.54;101541.00;5046947;28;20491;-58
2022/08/13 04:03:22;;;;;;;11.68;8.98;;;;;;;18.54;53.41;101531.34;5045810;28;20033;-58
2022/08/13 04:05:52;;;;;;;12.10;9.43;;;;;;;18.50;53.62;101535.72;5042523;28;20052;-57
2022/08/13 04:08:18;;;;;;;10.45;8.80;;;;;;;18.55;52.45;101535.72;5046422;28;20033;-57
2022/08/13 04:10:44;;;;;;;12.02;9.23;;;;;;;18.52;53.80;101543.63;5050887;28;20094;-57
2022/08/13 04:13:15;;;;;;;10.82;9.27;;;;;;;18.45;54.03;101534.84;5045735;28;20396;-57
2022/08/13 04:15:42;;;;;;;10.93;9.18;;;;;;;18.40;54.43;101541.84;5047097;28;20032;-58
2022/08/13 04:18:12;;;;;;;11.93;9.63;;;;;;;18.36;53.99;101543.59;5049200;28;20043;-57
2022/08/13 04:20:52;;;;;;;11.85;10.38;;;;;;;18.31;54.07;101539.19;5048979;28;20564;-56
2022/08/13 04:23:19;;;;;;;10.57;9.48;;;;;;;18.30;54.17;101537.44;5049196;28;20479;-58
2022/08/13 04:25:47;;;;;;;11.75;9.85;;;;;;;18.29;53.60;101540.94;5049394;28;20480;-57
2022/08/13 04:28:14;;;;;;;11.90;9.68;;;;;;;18.30;53.79;101547.97;5033673;28;20502;-58
2022/08/13 04:30:41;;;;;;;10.70;9.63;;;;;;;18.27;54.23;101543.56;5049669;28;20051;-58
2022/08/13 04:33:09;;;;;;;13.38;10.00;;;;;;;18.25;54.45;101548.84;5047771;28;20112;-58
2022/08/13 04:35:35;;;;;;;11.73;10.00;;;;;;;18.22;54.26;101556.75;5048536;28;20098;-56
2022/08/13 04:38:01;;;;;;;11.82;9.80;;;;;;;18.21;53.85;101552.34;5045805;28;20028;-57
2022/08/13 04:40:26;;;;;;;12.55;9.73;;;;;;;18.19;53.94;101548.84;5049789;28;20070;-57
2022/08/13 04:42:54;;;;;;;12.93;10.00;;;;;;;18.17;54.37;101547.06;5046423;28;20024;-57
2022/08/13 04:45:25;;;;;;;13.88;10.43;;;;;;;18.15;54.36;101547.06;5048788;28;20086;-57
2022/08/13 04:47:50;;;;;;;13.40;10.40;;;;;;;18.13;54.20;101548.78;5047792;28;20017;-57
2022/08/13 04:50:16;;;;;;;11.38;10.18;;;;;;;18.07;54.55;101557.59;5046382;28;20110;-57
2022/08/13 04:52:41;;;;;;;11.25;9.77;;;;;;;18.07;54.44;101552.31;5042362;28;20112;-57
2022/08/13 04:55:10;;;;;;;11.35;10.20;;;;;;;18.09;54.34;101560.22;5044004;28;20060;-57
2022/08/13 04:57:36;;;;;;;11.45;10.18;;;;;;;18.05;54.65;101559.31;5051464;28;20043;-57
2022/08/13 05:00:05;;;;;;;13.65;10.82;;;;;;;18.03;54.52;101554.91;5048314;28;20027;-57
2022/08/13 05:02:31;;;;;;;13.05;10.48;;;;;;;18.03;54.80;101560.19;5050742;28;20032;-58
2022/08/13 05:04:58;;;;;;;12.77;10.65;;;;;;;17.99;55.18;101558.44;5046985;28;20013;-57
2022/08/13 05:07:24;;;;;;;14.65;10.82;;;;;;;17.95;55.73;101556.66;5046547;28;20029;-58
2022/08/13 05:09:49;;;;;;;12.73;11.20;;;;;;;17.95;55.27;101564.56;5044637;28;20029;-58
2022/08/13 05:12:15;;;;;;;14.32;11.35;;;;;;;17.94;55.74;101568.06;5050263;28;20029;-58
2022/08/13 05:14:40;;;;;;;14.15;12.07;;;;;;;17.94;55.60;101565.44;5044042;28;20032;-58
2022/08/13 05:17:07;;;;;;;15.98;12.27;;;;;;;17.91;55.34;101561.00;5030548;28;20033;-58
2022/08/13 05:19:33;;;;;;;14.25;12.85;;;;;;;17.91;55.14;101566.28;5029944;28;20044;-58
2022/08/13 05:21:58;;;;;;;16.55;13.52;;;;;;;17.90;55.70;101562.78;5020658;28;20013;-58
2022/08/13 05:24:23;;;;;;;14.07;12.63;;;;;;;17.92;55.18;101562.78;5040795;28;20033;-58
2022/08/13 05:26:48;;;;;;;14.20;12.73;;;;;;;17.90;55.63;101568.06;5037815;28;20029;-58
2022/08/13 05:29:14;;;;;;;15.27;13.50;;;;;;;17.90;56.34;101572.44;5023388;28;20492;-57
2022/08/13 05:31:40;;;;;;;16.52;14.30;;;;;;;17.90;55.75;101573.31;5041020;28;20082;-57
2022/08/13 05:34:06;;;;;;;15.23;13.80;;;;;;;17.92;55.50;101572.47;5043515;28;20029;-57
2022/08/13 05:36:32;;;;;;;17.05;14.13;;;;;;;17.90;57.03;101568.06;5039787;28;20412;-57
2022/08/13 05:38:58;;;;;;;16.45;14.68;;;;;;;17.93;55.62;101574.19;5041775;28;20110;-57
2022/08/13 05:41:25;;;;;;;16.33;14.65;;;;;;;17.93;55.82;101568.94;5039554;28;20747;-57
2022/08/13 05:43:51;;;;;;;19.35;15.18;;;;;;;17.93;56.40;101563.66;5041848;28;20024;-57
2022/08/13 05:46:17;;;;;;;20.98;15.80;;;;;;;17.92;56.56;101565.41;5039199;28;20021;-58
2022/08/13 05:48:56;;;;;;;16.77;15.07;;;;;;;17.97;56.19;101570.72;5041346;28;20484;-57
2022/08/13 05:51:24;;;;;;;19.13;15.30;;;;;;;17.99;56.44;101568.97;5041838;28;20045;-58
2022/08/13 05:53:54;;;;;;;17.90;15.93;;;;;;;18.01;56.42;101567.22;5043610;28;20084;-58
2022/08/13 05:56:24;;;;;;;19.50;15.40;;;;;;;18.01;57.17;101568.09;5040035;28;20076;-58
2022/08/13 05:58:50;;;;;;;20.17;15.48;;;;;;;18.03;56.49;101570.72;5043537;28;20025;-58
2022/08/13 06:04:01;;;;;;;16.45;14.65;;;;;;;18.07;56.99;101562.88;5043463;28;20091;-57
2022/08/13 06:06:28;;;;;;;16.92;14.48;;;;;;;18.08;56.79;101564.59;5048961;28;20036;-57
2022/08/13 06:08:58;;;;;;;15.50;13.88;;;;;;;18.08;57.41;101569.00;5049934;28;20108;-58
2022/08/13 06:11:25;;;;;;;14.85;13.35;;;;;;;18.11;56.60;101563.75;5049228;28;20036;-58
2022/08/13 06:13:51;;;;;;;15.93;13.43;;;;;;;18.15;57.22;101565.53;5048971;28;20116;-57
2022/08/13 06:16:17;;;;;;;15.32;13.25;;;;;;;18.17;57.32;101574.31;5046697;28;20104;-58
2022/08/13 06:18:44;;;;;;;14.43;12.70;;;;;;;18.19;58.16;101564.66;5044426;28;20404;-58
2022/08/13 06:21:12;;;;;;;14.02;12.63;;;;;;;18.20;58.15;101560.25;5046989;28;20037;-57
2022/08/13 06:23:38;;;;;;;14.88;11.88;;;;;;;18.23;57.74;101561.16;5044516;28;20078;-58
2022/08/13 06:26:09;;;;;;;13.73;10.57;;;;;;;18.28;56.77;101560.28;5045105;28;20029;-58
2022/08/13 06:28:35;;;;;;;12.10;10.80;;;;;;;18.32;57.39;101562.94;5042801;28;20029;-58
2022/08/13 06:31:13;;;;;;;12.05;10.73;;;;;;;18.37;56.73;101561.19;5027427;28;20542;-58
2022/08/13 06:33:38;;;;;;;12.43;10.52;;;;;;;18.41;58.01;101557.69;5044966;28;20043;-58
2022/08/13 06:36:06;;;;;;;11.27;10.02;;;;;;;18.48;56.43;101568.25;5048345;28;20025;-57
2022/08/13 06:38:34;;;;;;;12.38;10.95;;;;;;;18.55;57.08;101564.75;5043412;28;20044;-58
2022/08/13 06:41:02;;;;;;;11.45;9.52;;;;;;;18.63;56.52;101570.06;5039179;28;20413;-58
2022/08/13 06:43:35;;;;;;;12.98;10.02;;;;;;;18.71;56.23;101570.94;5039771;28;20024;-58
2022/08/13 06:46:03;;;;;;;11.57;10.02;;;;;;;18.79;56.47;101568.31;5045042;28;20034;-58
2022/08/13 06:48:29;;;;;;;14.15;10.23;;;;;;;18.87;55.49;101566.59;5026503;28;20396;-58
2022/08/13 06:50:55;;;;;;;12.18;10.45;;;;;;;18.94;55.30;101568.34;5047655;28;20017;-57
2022/08/13 06:53:21;;;;;;;10.73;9.40;;;;;;;19.02;56.09;101560.44;5039136;28;20079;-57
2022/08/13 06:55:50;;;;;;;13.38;10.07;;;;;;;19.09;55.58;101567.50;5041581;28;20028;-57
2022/08/13 06:58:16;;;;;;;12.57;10.35;;;;;;;19.17;55.04;101576.28;5047428;28;20029;-57
2022/08/13 07:00:43;;;;;;;13.40;11.07;;;;;;;19.29;55.52;101560.44;5048108;28;20033;-57
2022/08/13 07:03:10;;;;;;;14.35;10.18;;;;;;;19.36;55.15;101563.91;5045701;28;20397;-57
2022/08/13 07:05:38;;;;;;;13.70;9.45;;;;;;;19.44;55.15;101569.22;5034424;28;20456;-58
2022/08/13 07:08:06;;;;;;;12.10;10.90;;;;;;;19.52;54.41;101570.06;5036459;28;20025;-58
2022/08/13 07:10:32;;;;;;;12.07;9.75;;;;;;;19.59;55.56;101573.59;5039099;28;20116;-57
2022/08/13 07:13:00;;;;;;;12.02;8.98;;;;;;;19.66;55.86;101574.47;5035661;28;20045;-57
2022/08/13 07:15:25;;;;;;;15.00;9.40;;;;;;;19.72;55.46;101577.09;5036432;28;20415;-58
2022/08/13 07:17:51;;;;;;;11.77;8.45;;;;;;;19.83;55.18;101577.97;5040147;28;20017;-57
2022/08/13 07:20:17;;;;;;;10.45;8.70;;;;;;;19.89;54.17;101583.25;5038447;28;20450;-58
2022/08/13 07:22:42;;;;;;;9.90;8.30;;;;;;;20.00;54.31;101582.31;5036054;28;20034;-58
2022/08/13 07:25:10;;;;;;;11.10;8.05;;;;;;;20.08;54.51;101586.69;5038156;28;20021;-58
2022/08/13 07:27:40;;;;;;;12.20;9.32;;;;;;;20.15;54.34;101576.97;5040547;28;20053;-57
2022/08/13 07:30:06;;;;;;;10.27;9.18;;;;;;;20.23;53.54;101572.50;5042639;28;20100;-58
2022/08/13 07:32:38;;;;;;;13.10;10.20;;;;;;;20.30;52.10;101571.59;5046992;28;20102;-58
2022/08/13 07:35:08;;;;;;;12.15;9.70;;;;;;;20.38;52.78;101566.28;5044511;28;20039;-58
2022/08/13 07:37:34;;;;;;;10.32;8.25;;;;;;;20.49;54.43;101577.69;5046201;28;20040;-58
2022/08/13 07:40:00;;;;;;;11.02;7.93;;;;;;;20.55;53.57;101571.47;5030039;28;20037;-58
2022/08/13 07:42:27;;;;;;;9.82;7.90;;;;;;;20.65;53.49;101581.13;5039191;28;20404;-58
2022/08/13 07:44:53;;;;;;;8.88;6.88;;;;;;;20.73;53.52;101572.28;5038541;28;20028;-58
2022/08/13 07:47:21;;;;;;;9.25;6.90;;;;;;;20.82;53.17;101577.50;5045456;28;20550;-57
2022/08/13 07:49:48;;;;;;;9.30;6.70;;;;;;;20.88;52.89;101579.22;5038489;28;20009;-58
2022/08/13 07:52:14;;;;;;;10.27;7.07;;;;;;;20.97;52.23;101582.69;5049577;28;20039;-58
2022/08/13 07:54:43;;;;;;;11.13;7.68;;;;;;;21.04;52.23;101578.19;5050870;28;20024;-58
2022/08/13 07:57:09;;;;;;;9.93;7.05;;;;;;;21.13;52.69;101582.53;5048588;28;20072;-57
2022/08/13 07:59:36;;;;;;;9.20;6.70;;;;;;;21.26;50.96;101581.56;5052345;28;20471;-57
2022/08/13 08:02:04;;;;;;;9.52;6.20;;;;;;;21.32;51.85;101578.84;5047797;28;20024;-57
2022/08/13 08:04:30;;;;;;;9.40;5.75;;;;;;;21.43;49.86;101578.72;5041562;28;20399;-58
2022/08/13 08:06:56;;;;;;;9.05;5.82;;;;;;;21.55;50.41;101580.41;5041829;28;20095;-57
2022/08/13 08:09:26;;;;;;;8.35;5.25;;;;;;;21.61;49.91;101577.72;5038900;28;20025;-58
2022/08/13 08:14:39;;;;;;;8.50;5.00;;;;;;;21.79;49.20;101579.28;5041485;28;20035;-58
2022/08/13 08:17:08;;;;;;;9.93;5.20;;;;;;;21.86;49.93;101583.63;5039375;28;20521;-57
2022/08/13 08:19:33;;;;;;;6.55;5.00;;;;;;;21.93;48.68;101584.44;5040194;28;20029;-57
2022/08/13 08:21:59;;;;;;;7.03;5.03;;;;;;;22.00;48.25;101583.47;5039369;28;20035;-57
2022/08/13 08:24:26;;;;;;;6.47;4.70;;;;;;;22.10;48.45;101586.00;5040667;28;20108;-57
2022/08/13 08:26:55;;;;;;;6.32;4.93;;;;;;;22.16;47.10;101583.25;5039987;28;20089;-57
2022/08/13 08:29:21;;;;;;;7.13;4.60;;;;;;;22.30;47.34;101583.09;5039906;28;20031;-58
2022/08/13 08:31:49;;;;;;;7.70;4.78;;;;;;;22.39;47.75;101580.31;5039153;28;20033;-57
2022/08/13 08:34:17;;;;;;;5.38;4.40;;;;;;;22.51;47.03;101584.59;5022370;28;20112;-58
2022/08/13 08:36:43;;;;;;;7.82;4.65;;;;;;;22.64;45.71;101586.19;5040491;28;20487;-58
2022/08/13 08:44:43;;;;;;;7.28;4.50;;;;;;;22.97;45.02;101577.69;5040290;28;20719;-58
2022/08/13 08:47:08;;;;;;;6.45;4.28;;;;;;;23.05;46.00;101581.09;5045445;28;20078;-58
2022/08/13 08:49:35;;;;;;;7.45;4.40;;;;;;;23.21;44.41;101584.41;5046064;28;20051;-58
2022/08/13 08:52:02;;;;;;;6.82;4.32;;;;;;;23.28;44.05;101586.06;5044524;28;20131;-59
2022/08/13 08:54:29;;;;;;;7.05;4.20;;;;;;;23.37;44.83;101580.56;5039335;28;20025;-58
2022/08/13 08:56:56;;;;;;;6.70;4.72;;;;;;;23.53;42.55;101582.97;5048951;28;20036;-59
2022/08/13 08:59:32;;;;;;;12.18;4.50;;;;;;;23.62;43.14;101582.78;5040153;28;20033;-60
2022/08/13 09:01:59;;;;;;;5.40;4.30;;;;;;;23.76;43.93;101580.72;5049405;28;20025;-58
2022/08/13 09:04:29;;;;;;;9.43;4.47;;;;;;;23.88;43.03;101582.31;5046583;28;20108;-58
2022/08/13 09:06:58;;;;;;;7.22;4.30;;;;;;;23.96;43.12;101576.84;5047260;28;20020;-59
2022/08/13 09:09:25;;;;;;;7.07;4.45;;;;;;;24.06;43.21;101581.06;5050147;28;20035;-59
2022/08/13 09:11:55;;;;;;;4.82;4.30;;;;;;;24.24;42.54;101576.25;5051537;28;20075;-58
2022/08/13 09:14:26;;;;;;;5.55;4.10;;;;;;;24.36;44.37;101570.66;5031241;28;20123;-59
2022/08/13 09:16:53;;;;;;;7.38;4.30;;;;;;;24.44;42.43;101574.00;5044282;28;20039;-58
2022/08/13 09:19:19;;;;;;;7.40;4.05;;;;;;;24.57;41.54;101561.28;5046914;28;20052;-59
2022/08/13 09:21:46;;;;;;;4.53;4.03;;;;;;;24.62;41.89;101567.44;5042556;28;20056;-59
2022/08/13 09:24:15;;;;;;;6.85;4.85;;;;;;;24.81;39.65;101564.31;5046828;28;20044;-59
2022/08/13 09:26:45;;;;;;;5.75;4.05;;;;;;;24.99;41.13;101560.31;5048657;28;20060;-59
2022/08/13 09:29:14;;;;;;;6.65;4.35;;;;;;;25.09;40.85;101572.50;5028932;28;20029;-58
2022/08/13 09:31:45;;;;;;;7.20;3.80;;;;;;;25.22;39.44;101572.19;5047856;28;20036;-59
2022/08/13 09:34:11;;;;;;;5.78;4.22;;;;;;;25.30;37.86;101570.19;5049327;28;20538;-59
2022/08/13 09:36:38;;;;;;;5.95;4.10;;;;;;;25.42;39.52;101564.56;5051353;28;20033;-59
2022/08/13 09:39:04;;;;;;;5.30;4.18;;;;;;;25.57;38.59;101570.41;5048860;28;20125;-59
2022/08/13 09:41:38;;;;;;;7.55;4.00;;;;;;;25.73;40.17;101570.84;5049847;28;20515;-59
2022/08/13 09:44:04;;;;;;;8.00;4.50;;;;;;;25.78;39.74;101568.91;5033974;28;20045;-59
2022/08/13 09:46:35;;;;;;;5.78;4.30;;;;;;;25.93;38.30;101562.25;5038972;28;20033;-59
2022/08/13 09:49:03;;;;;;;5.85;4.00;;;;;;;25.98;39.28;101560.31;5043515;28;20508;-58
2022/08/13 09:51:35;;;;;;;6.95;3.85;;;;;;;26.14;39.11;101556.31;5049997;28;20025;-59
2022/08/13 09:54:02;;;;;;;5.63;3.83;;;;;;;26.26;38.29;101547.03;5050428;28;20099;-59
2022/08/13 09:56:28;;;;;;;6.20;4.10;;;;;;;26.41;37.98;101556.38;5050484;28;20082;-58
2022/08/13 09:58:53;;;;;;;7.97;3.80;;;;;;;26.47;38.14;101555.31;5032322;28;20021;-58
2022/08/13 10:01:18;;;;;;;5.97;3.80;;;;;;;26.62;37.44;101546.81;5046647;28;20036;-59
2022/08/13 10:03:48;;;;;;;5.47;3.70;;;;;;;26.70;36.67;101542.09;5050380;28;20028;-58
2022/08/13 10:06:16;;;;;;;5.20;3.78;;;;;;;26.83;37.87;101542.56;5045337;28;20345;-58
2022/08/13 10:08:41;;;;;;;5.60;3.47;;;;;;;27.03;37.34;101533.00;5027550;28;20411;-58
2022/08/13 10:11:06;;;;;;;4.30;3.65;;;;;;;27.18;36.75;101531.59;5048460;28;20250;-58
2022/08/13 10:13:33;;;;;;;5.60;3.73;;;;;;;27.18;36.68;101527.09;5053639;28;20033;-58
2022/08/13 10:15:59;;;;;;;4.60;3.50;;;;;;;27.33;34.22;101522.13;5049784;28;20283;-59
2022/08/13 10:18:27;;;;;;;4.10;3.17;;;;;;;27.45;35.77;101527.09;5048632;28;20488;-59
2022/08/13 10:20:53;;;;;;;5.30;3.80;;;;;;;27.52;36.02;101533.97;5048114;28;20033;-59
2022/08/13 10:23:18;;;;;;;6.10;3.40;;;;;;;27.69;34.54;101524.44;5045777;28;20029;-59
2022/08/13 10:25:45;;;;;;;5.20;3.45;;;;;;;27.79;34.44;101517.78;5045135;28;20082;-59
2022/08/13 10:28:16;;;;;;;4.00;3.40;;;;;;;27.94;35.42;101517.22;5038761;28;20029;-59
2022/08/13 10:30:42;;;;;;;4.65;2.92;;;;;;;28.08;34.81;101511.34;5050338;28;20463;-58
2022/08/13 10:33:08;;;;;;;3.83;2.97;;;;;;;28.10;32.08;101519.34;5044703;28;20029;-59
2022/08/13 10:35:34;;;;;;;3.47;2.90;;;;;;;28.20;30.13;101523.41;5039646;28;20396;-59
2022/08/13 10:38:00;;;;;;;4.57;2.90;;;;;;;28.25;31.66;101516.03;5048885;28;20040;-59
2022/08/13 10:40:26;;;;;;;4.47;2.90;;;;;;;28.42;30.61;101518.03;5043569;28;20068;-59
2022/08/13 10:42:52;;;;;;;4.80;3.30;;;;;;;28.44;32.98;101509.94;5043289;28;20079;-59
2022/08/13 10:45:19;;;;;;;4.93;2.70;;;;;;;28.55;30.57;101523.78;5040659;28;20041;-60
2022/08/13 10:47:51;;;;;;;4.40;3.17;;;;;;;28.62;31.75;101511.03;5045567;28;20033;-59
2022/08/13 10:50:29;;;;;;;3.92;2.97;;;;;;;28.69;30.76;101506.25;5042265;28;20029;-58
2022/08/13 10:52:54;;;;;;;5.63;3.10;;;;;;;28.77;31.97;101510.34;5043335;28;20025;-58
2022/08/13 10:55:19;;;;;;;4.35;2.90;;;;;;;28.93;30.42;101505.22;5048220;28;20083;-58
2022/08/13 10:57:46;;;;;;;4.17;3.13;;;;;;;29.02;31.64;101501.25;5041720;28;20121;-58
2022/08/13 11:00:14;;;;;;;3.95;2.78;;;;;;;29.11;30.77;101505.34;5038764;28;20377;-58
2022/08/13 11:02:40;;;;;;;;;;;;;;;29.26;32.90;101503.84;5037207;28;20037;-58
2022/08/13 11:05:07;;;;;;;4.03;3.25;;;;;;;29.29;30.17;101499.19;5042028;28;19967;-59
2022/08/13 11:07:36;;;;;;;4.25;2.90;;;;;;;29.36;28.37;101510.56;5036605;28;20047;-58
2022/08/13 11:10:06;;;;;;;4.57;2.65;;;;;;;29.35;28.67;101506.13;5041655;28;20056;-57
2022/08/13 11:12:34;;;;;;;3.63;2.97;;;;;;;29.50;30.52;101509.91;5041348;28;20435;-58
2022/08/13 11:15:01;;;;;;;4.13;3.03;;;;;;;29.61;29.34;101510.28;5040335;28;20029;-58
2022/08/13 11:17:26;;;;;;;4.20;3.00;;;;;;;29.71;29.18;101508.06;5043941;28;20459;-58
2022/08/13 11:19:52;;;;;;;3.88;2.90;;;;;;;29.80;28.14;101504.06;5042909;28;20025;-58
2022/08/13 11:22:20;;;;;;;4.75;2.50;;;;;;;29.87;28.64;101504.69;5023148;28;20124;-58
2022/08/13 11:24:45;;;;;;;4.13;2.80;;;;;;;29.99;27.66;101496.91;5042298;28;20499;-57
2022/08/13 11:27:11;;;;;;;4.18;2.60;;;;;;;30.11;28.04;101494.56;5042243;28;20056;-57
2022/08/13 11:29:36;;;;;;;4.78;2.95;;;;;;;30.15;26.91;101494.34;5039798;28;20071;-58
2022/08/13 11:32:02;;;;;;;6.32;2.92;;;;;;;30.33;26.17;101487.22;5040884;28;21349;-57
2022/08/13 11:34:27;;;;;;;3.92;3.17;;;;;;;30.37;26.38;101482.53;5041312;28;20021;-59
2022/08/13 11:36:53;;;;;;;4.22;3.05;;;;;;;30.48;25.83;101482.03;5041531;28;20044;-59